createdAt,value
2023-04-09T00:03:31.656Z,7.37
2023-04-09T00:08:00.664Z,7.42
2023-04-09T00:12:29.855Z,7.49
2023-04-09T00:16:58.736Z,7.45
2023-04-09T00:21:27.794Z,7.49
2023-04-09T00:25:56.709Z,7.39
2023-04-09T00:30:25.377Z,7.40
2023-04-09T00:34:54.310Z,7.38
2023-04-09T00:39:23.194Z,7.34
2023-04-09T00:43:52.248Z,7.34
2023-04-09T00:48:20.916Z,7.23
2023-04-09T00:52:52.526Z,7.27
2023-04-09T00:57:21.496Z,7.25
2023-04-09T01:01:50.911Z,7.28
2023-04-09T01:06:25.800Z,7.27
2023-04-09T01:10:57.966Z,7.27
2023-04-09T01:15:41.517Z,7.34
2023-04-09T01:20:29.044Z,7.33
2023-04-09T01:25:03.611Z,7.40
2023-04-09T01:29:35.887Z,7.31
2023-04-09T01:34:04.651Z,7.41
2023-04-09T01:38:34.455Z,7.39
2023-04-09T01:43:03.632Z,7.41
2023-04-09T01:47:32.750Z,7.35
2023-04-09T01:52:01.678Z,7.35
2023-04-09T01:56:30.854Z,7.44
2023-04-09T02:06:11.298Z,7.43
2023-04-09T02:10:40.551Z,7.33
2023-04-09T02:15:09.815Z,7.49
2023-04-09T02:19:38.660Z,7.46
2023-04-09T02:24:07.960Z,7.48
2023-04-09T02:28:36.919Z,7.44
2023-04-09T02:33:05.905Z,7.55
2023-04-09T02:37:35.135Z,7.61
2023-04-09T02:42:04.020Z,7.65
2023-04-09T02:46:33.059Z,7.66
2023-04-09T02:51:02.569Z,7.64
2023-04-09T02:55:31.568Z,7.59
2023-04-09T03:00:00.415Z,7.64
2023-04-09T03:04:29.245Z,7.62
2023-04-09T03:08:58.008Z,7.65
2023-04-09T03:13:27.394Z,7.65
2023-04-09T03:17:56.529Z,7.57
2023-04-09T03:22:25.337Z,7.48
2023-04-09T03:27:03.067Z,7.36
2023-04-09T03:31:31.884Z,7.48
2023-04-09T03:36:00.879Z,7.42
2023-04-09T03:40:30.054Z,7.41
2023-04-09T03:45:03.886Z,7.49
2023-04-09T03:49:32.938Z,7.43
2023-04-09T03:54:02.070Z,7.34
2023-04-09T03:58:31.172Z,7.34
2023-04-09T04:03:00.370Z,6.97
2023-04-09T04:07:32.721Z,6.99
2023-04-09T04:12:04.162Z,7.16
2023-04-09T04:16:42.871Z,7.16
2023-04-09T04:21:11.766Z,7.35
2023-04-09T04:25:41.219Z,7.37
2023-04-09T04:30:10.286Z,7.31
2023-04-09T04:34:39.956Z,7.25
2023-04-09T04:39:09.285Z,7.30
2023-04-09T04:43:39.054Z,7.34
2023-04-09T04:48:08.313Z,7.38
2023-04-09T04:52:37.362Z,7.34
2023-04-09T04:57:06.737Z,7.37
2023-04-09T05:01:35.967Z,7.43
2023-04-09T05:06:04.794Z,7.53
2023-04-09T05:10:33.375Z,7.60
2023-04-09T05:15:02.801Z,7.65
2023-04-09T05:19:31.648Z,7.69
2023-04-09T05:24:00.676Z,7.77
2023-04-09T05:28:29.859Z,7.79
2023-04-09T05:33:00.191Z,7.76
2023-04-09T05:37:30.529Z,7.65
2023-04-09T05:41:59.833Z,7.45
2023-04-09T05:46:43.761Z,7.58
2023-04-09T05:51:15.928Z,7.65
2023-04-09T05:55:44.944Z,7.97
2023-04-09T06:00:14.221Z,7.90
2023-04-09T06:04:43.370Z,8.06
2023-04-09T06:09:12.406Z,8.44
2023-04-09T06:13:41.806Z,8.64
2023-04-09T06:18:11.201Z,8.66
2023-04-09T06:22:40.605Z,8.72
2023-04-09T06:28:45.834Z,8.57
2023-04-09T06:31:40.695Z,8.51
2023-04-09T06:36:10.044Z,8.50
2023-04-09T06:46:24.598Z,9.06
2023-04-09T06:50:04.879Z,9.10
2023-04-09T06:53:46.596Z,8.98
2023-04-09T06:57:25.962Z,9.01
2023-04-09T07:01:07.511Z,8.87
2023-04-09T07:04:33.987Z,9.07
2023-04-09T07:08:14.051Z,9.19
2023-04-09T07:11:52.801Z,9.32
2023-04-09T07:15:17.281Z,9.75
2023-04-09T07:18:59.130Z,9.64
2023-04-09T07:22:47.977Z,9.75
2023-04-09T07:26:36.917Z,9.78
2023-04-09T07:29:59.682Z,9.64
2023-04-09T07:33:38.449Z,9.75
2023-04-09T07:37:27.425Z,9.68
2023-04-09T07:40:59.150Z,9.58
2023-04-09T07:44:41.135Z,9.76
2023-04-09T07:48:30.482Z,9.94
2023-04-09T07:52:12.038Z,9.77
2023-04-09T07:55:50.205Z,9.87
2023-04-09T07:59:39.188Z,9.84
2023-04-09T08:03:20.261Z,9.70
2023-04-09T08:06:53.909Z,9.64
2023-04-09T08:10:43.159Z,9.61
2023-04-09T08:14:36.085Z,9.76
2023-04-09T08:18:07.370Z,9.71
2023-04-09T08:21:56.598Z,9.82
2023-04-09T08:25:35.656Z,9.74
2023-04-09T08:29:25.155Z,10.13
2023-04-09T08:33:14.724Z,9.98
2023-04-09T08:37:04.001Z,10.12
2023-04-09T08:41:44.683Z,10.56
2023-04-09T08:44:44.236Z,10.73
2023-04-09T08:48:12.174Z,10.72
2023-04-09T08:51:55.284Z,10.97
2023-04-09T08:55:45.566Z,11.17
2023-04-09T08:59:35.862Z,10.96
2023-04-09T09:03:35.314Z,10.99
2023-04-09T09:07:09.612Z,10.75
2023-04-09T09:10:59.306Z,10.79
2023-04-09T09:14:48.817Z,10.86
2023-04-09T09:18:37.281Z,11.41
2023-04-09T09:22:26.925Z,11.34
2023-04-09T09:26:18.470Z,11.28
2023-04-09T09:30:01.685Z,11.18
2023-04-09T09:33:53.692Z,10.92
2023-04-09T09:37:35.541Z,11.17
2023-04-09T09:41:10.327Z,11.37
2023-04-09T09:45:10.910Z,11.22
2023-04-09T09:48:41.966Z,11.25
2023-04-09T09:52:30.876Z,11.14
2023-04-09T09:56:13.567Z,11.32
2023-04-09T10:00:11.478Z,11.54
2023-04-09T10:04:06.117Z,11.53
2023-04-09T10:07:54.083Z,11.30
2023-04-09T10:11:42.804Z,11.34
2023-04-09T10:15:31.901Z,11.15
2023-04-09T10:19:13.871Z,11.35
2023-04-09T10:22:52.189Z,11.42
2023-04-09T10:26:22.770Z,11.56
2023-04-09T10:30:07.650Z,11.52
2023-04-09T10:33:56.626Z,11.56
2023-04-09T10:37:45.559Z,11.48
2023-04-09T10:41:22.572Z,11.27
2023-04-09T10:45:22.277Z,11.31
2023-04-09T10:48:59.364Z,11.50
2023-04-09T10:53:02.302Z,11.53
2023-04-09T10:56:54.839Z,11.53
2023-04-09T11:00:36.639Z,11.60
2023-04-09T11:04:11.524Z,11.51
2023-04-09T11:08:00.478Z,11.55
2023-04-09T11:11:42.878Z,11.55
2023-04-09T11:15:17.211Z,11.74
2023-04-09T11:18:56.141Z,11.75
2023-04-09T11:22:39.121Z,11.60
2023-04-09T11:26:31.117Z,11.51
2023-04-09T11:30:09.047Z,11.58
2023-04-09T11:33:51.042Z,11.75
2023-04-09T11:37:36.302Z,11.68
2023-04-09T11:41:27.212Z,11.59
2023-04-09T11:45:16.751Z,11.71
2023-04-09T11:48:44.733Z,12.01
2023-04-09T11:52:32.784Z,11.93
2023-04-09T11:56:25.055Z,11.67
2023-04-09T12:00:14.303Z,11.72
2023-04-09T12:04:00.829Z,11.78
2023-04-09T12:07:56.385Z,11.91
2023-04-09T12:11:39.123Z,11.85
2023-04-09T12:15:18.951Z,11.77
2023-04-09T12:18:56.078Z,12.04
2023-04-09T12:22:48.282Z,12.13
2023-04-09T12:26:12.252Z,12.24
2023-04-09T12:30:02.255Z,12.55
2023-04-09T12:33:52.035Z,12.78
2023-04-09T12:37:33.174Z,12.67
2023-04-09T12:41:23.272Z,12.67
2023-04-09T12:45:14.342Z,13.12
2023-04-09T12:49:04.275Z,12.82
2023-04-09T12:52:53.127Z,12.64
2023-04-09T12:56:37.092Z,12.57
2023-04-09T13:00:26.282Z,12.32
2023-04-09T13:04:14.506Z,12.26
2023-04-09T13:07:46.778Z,12.30
2023-04-09T13:11:21.960Z,12.53
2023-04-09T13:15:03.995Z,12.59
2023-04-09T13:18:54.096Z,12.86
2023-04-09T13:22:43.496Z,12.73
2023-04-09T13:26:25.378Z,12.85
2023-04-09T13:30:13.339Z,12.79
2023-04-09T13:34:02.668Z,12.69
2023-04-09T13:37:51.941Z,12.82
2023-04-09T13:41:21.348Z,12.86
2023-04-09T13:45:10.611Z,12.98
2023-04-09T13:48:59.904Z,13.03
2023-04-09T13:52:34.818Z,13.11
2023-04-09T13:56:14.248Z,13.01
2023-04-09T14:00:04.213Z,13.04
2023-04-09T14:03:53.533Z,12.97
2023-04-09T14:07:43.276Z,12.86
2023-04-09T14:11:32.700Z,13.19
2023-04-09T14:15:21.972Z,13.20
2023-04-09T14:19:10.883Z,12.99
2023-04-09T14:23:00.416Z,12.89
2023-04-09T14:26:49.871Z,12.78
2023-04-09T14:30:16.116Z,12.75
2023-04-09T14:34:05.181Z,12.71
2023-04-09T14:37:54.475Z,12.95
2023-04-09T14:41:44.153Z,12.86
2023-04-09T14:45:35.537Z,12.81
2023-04-09T14:49:25.139Z,13.06
2023-04-09T14:53:14.828Z,12.67
2023-04-09T14:57:04.514Z,12.64
2023-04-09T15:00:54.298Z,12.77
2023-04-09T15:04:32.891Z,12.77
2023-04-09T15:08:22.227Z,12.93
2023-04-09T15:12:11.584Z,12.89
2023-04-09T15:15:43.802Z,12.78
2023-04-09T15:19:32.836Z,12.84
2023-04-09T15:23:22.394Z,12.90
2023-04-09T15:27:11.830Z,12.99
2023-04-09T15:31:01.674Z,13.12
2023-04-09T15:34:51.094Z,12.98
2023-04-09T15:38:43.442Z,13.17
2023-04-09T15:42:32.938Z,13.22
2023-04-09T15:46:21.730Z,13.13
2023-04-09T15:50:02.351Z,13.37
2023-04-09T15:53:42.539Z,13.27
2023-04-09T15:57:53.351Z,13.31
2023-04-09T16:01:42.263Z,13.30
2023-04-09T16:05:31.604Z,13.38
2023-04-09T16:09:21.587Z,13.20
2023-04-09T16:13:05.023Z,12.92
2023-04-09T16:16:54.022Z,12.73
2023-04-09T16:20:43.445Z,12.65
2023-04-09T16:24:32.804Z,12.69
2023-04-09T16:28:26.785Z,12.64
2023-04-09T16:32:16.013Z,12.59
2023-04-09T16:36:04.975Z,12.54
2023-04-09T16:39:54.012Z,12.59
2023-04-09T16:43:43.278Z,12.60
2023-04-09T16:47:33.078Z,12.41
2023-04-09T16:51:22.054Z,12.45
2023-04-09T16:55:11.175Z,12.39
2023-04-09T16:59:00.449Z,12.56
2023-04-09T17:02:49.738Z,12.61
2023-04-09T17:06:37.818Z,12.66
2023-04-09T17:10:28.219Z,12.72
2023-04-09T17:14:17.649Z,12.70
2023-04-09T17:18:06.397Z,12.72
2023-04-09T17:21:58.939Z,12.74
2023-04-09T17:29:52.349Z,12.86
2023-04-09T17:34:01.179Z,12.69
2023-04-09T17:38:29.367Z,12.66
2023-04-09T17:42:37.807Z,12.60
2023-04-09T17:47:06.338Z,12.40
2023-04-09T17:51:15.167Z,12.27
2023-04-09T17:55:46.033Z,12.14
2023-04-09T17:59:56.090Z,12.14
2023-04-09T18:04:06.686Z,12.09
2023-04-09T18:08:37.834Z,12.01
2023-04-09T18:12:52.405Z,11.92
2023-04-09T18:17:01.241Z,11.78
2023-04-09T18:21:10.316Z,11.68
2023-04-09T18:25:39.851Z,11.63
2023-04-09T18:29:41.682Z,11.43
2023-04-09T18:34:09.927Z,11.37
2023-04-09T18:38:28.234Z,11.35
2023-04-09T18:42:49.458Z,11.34
2023-04-09T18:47:18.780Z,11.36
2023-04-09T18:51:46.987Z,11.42
2023-04-09T18:56:18.135Z,11.29
2023-04-09T19:00:56.726Z,11.24
2023-04-09T19:05:14.373Z,11.20
2023-04-09T19:09:44.056Z,11.12
2023-04-09T19:14:16.110Z,11.01
2023-04-09T19:18:25.443Z,11.05
2023-04-09T19:22:27.437Z,10.94
2023-04-09T19:27:04.562Z,10.83
2023-04-09T19:31:27.571Z,10.89
2023-04-09T19:35:57.196Z,10.84
2023-04-09T19:40:25.842Z,10.76
2023-04-09T19:44:53.572Z,10.73
2023-04-09T19:49:22.970Z,10.69
2023-04-09T19:53:33.023Z,10.66
2023-04-09T19:58:04.498Z,10.66
2023-04-09T20:02:14.318Z,10.76
2023-04-09T20:06:47.790Z,10.73
2023-04-09T20:11:20.603Z,10.61
2023-04-09T20:15:50.018Z,10.57
2023-04-09T20:20:19.020Z,10.55
2023-04-09T20:24:48.538Z,10.58
2023-04-09T20:28:59.092Z,10.65
2023-04-09T20:33:10.805Z,10.78
2023-04-09T20:37:21.694Z,10.90
2023-04-09T20:41:50.412Z,11.03
2023-04-09T20:46:07.807Z,11.11
2023-04-09T20:50:37.305Z,11.16
2023-04-09T20:54:47.023Z,11.06
2023-04-09T20:59:18.520Z,11.05
2023-04-09T21:03:52.930Z,10.86
2023-04-09T21:08:20.872Z,10.58
2023-04-09T21:12:51.324Z,10.45
2023-04-09T21:17:17.866Z,10.41
2023-04-09T21:21:05.674Z,10.22
2023-04-09T21:24:53.957Z,10.19
2023-04-09T21:28:42.466Z,10.16
2023-04-09T21:32:30.627Z,10.12
2023-04-09T21:36:09.115Z,9.97
2023-04-09T21:39:31.847Z,9.83
2023-04-09T21:43:13.751Z,9.78
2023-04-09T21:46:22.337Z,9.61
2023-04-09T21:49:40.923Z,9.58
2023-04-09T21:53:27.214Z,9.56
2023-04-09T21:56:54.761Z,9.51
2023-04-09T22:00:32.306Z,9.35
2023-04-09T22:03:26.263Z,9.32
2023-04-09T22:06:47.299Z,9.38
2023-04-09T22:10:33.583Z,9.38
2023-04-09T22:14:21.252Z,9.31
2023-04-09T22:18:08.916Z,9.25
2023-04-09T22:21:47.288Z,9.27
2023-04-09T22:25:34.922Z,9.27
2023-04-09T22:28:34.926Z,9.19
2023-04-09T22:31:58.056Z,9.18
2023-04-09T22:35:18.893Z,9.29
2023-04-09T22:39:06.743Z,9.42
2023-04-09T22:42:34.739Z,9.48
2023-04-09T22:46:20.277Z,9.42
2023-04-09T22:49:57.827Z,9.41
2023-04-09T22:53:20.699Z,9.40
2023-04-09T22:56:38.965Z,9.21
2023-04-09T23:00:09.220Z,8.98
2023-04-09T23:03:39.922Z,9.04
2023-04-09T23:07:12.342Z,9.04
2023-04-09T23:10:45.258Z,9.04
2023-04-09T23:13:52.558Z,9.08
2023-04-09T23:17:31.283Z,9.13
2023-04-09T23:21:11.686Z,9.08
2023-04-09T23:24:59.795Z,9.02
2023-04-09T23:28:47.288Z,9.05
2023-04-09T23:32:14.541Z,9.00
2023-04-09T23:36:01.988Z,8.95
2023-04-09T23:39:49.459Z,8.91
2023-04-09T23:43:25.827Z,8.93
2023-04-09T23:46:45.980Z,8.96
2023-04-09T23:50:13.325Z,8.90
2023-04-09T23:54:01.859Z,8.74
2023-04-09T23:57:16.318Z,8.82
